createdAt,value
2018-09-23T00:01:41.693Z,10.70
2018-09-23T00:04:17.154Z,11.20
2018-09-23T00:06:52.637Z,11.60
2018-09-23T00:09:28.027Z,10.85
2018-09-23T00:12:03.708Z,11.10
2018-09-23T00:14:39.177Z,10.63
2018-09-23T00:17:14.896Z,11.53
2018-09-23T00:19:50.529Z,11.43
2018-09-23T00:22:26.031Z,12.03
2018-09-23T00:25:01.360Z,11.15
2018-09-23T00:27:36.817Z,12.00
2018-09-23T00:30:12.281Z,10.60
2018-09-23T00:32:47.849Z,10.95
2018-09-23T00:35:23.342Z,11.80
2018-09-23T00:37:58.801Z,11.25
2018-09-23T00:40:34.273Z,11.80
2018-09-23T00:43:09.769Z,12.35
2018-09-23T00:45:45.252Z,12.88
2018-09-23T00:48:20.838Z,15.50
2018-09-23T00:50:56.091Z,15.08
2018-09-23T00:53:31.681Z,14.85
2018-09-23T00:56:07.917Z,16.20
2018-09-23T00:58:43.209Z,15.83
2018-09-23T01:01:18.705Z,16.80
2018-09-23T01:03:54.297Z,15.50
2018-09-23T01:06:29.650Z,17.65
2018-09-23T01:09:07.352Z,18.30
2018-09-23T01:11:42.846Z,18.17
2018-09-23T01:14:18.269Z,18.00
2018-09-23T01:16:53.680Z,18.00
2018-09-23T01:19:29.197Z,19.57
2018-09-23T01:22:04.620Z,19.85
2018-09-23T01:24:40.152Z,21.57
2018-09-23T01:27:15.591Z,20.70
2018-09-23T01:29:51.025Z,22.22
2018-09-23T01:32:26.616Z,21.07
2018-09-23T01:35:02.213Z,20.97
2018-09-23T01:37:37.705Z,21.48
2018-09-23T01:40:13.474Z,22.82
2018-09-23T01:42:48.781Z,22.40
2018-09-23T01:45:24.384Z,24.43
2018-09-23T01:47:59.716Z,23.27
2018-09-23T01:50:35.154Z,23.50
2018-09-23T01:53:10.484Z,24.02
2018-09-23T01:55:45.933Z,25.45
2018-09-23T01:58:21.332Z,24.72
2018-09-23T02:00:56.724Z,24.30
2018-09-23T02:03:32.435Z,23.98
2018-09-23T02:06:08.021Z,26.10
2018-09-23T02:08:43.278Z,25.35
2018-09-23T02:11:18.798Z,26.40
2018-09-23T02:13:54.289Z,27.48
2018-09-23T02:16:29.943Z,26.50
2018-09-23T02:19:05.421Z,26.27
2018-09-23T02:21:40.797Z,27.05
2018-09-23T02:24:16.146Z,26.45
2018-09-23T02:26:51.692Z,26.27
2018-09-23T02:29:26.941Z,26.75
2018-09-23T02:32:02.432Z,26.85
2018-09-23T02:34:37.867Z,26.37
2018-09-23T02:37:13.358Z,28.92
2018-09-23T02:39:48.640Z,26.77
2018-09-23T02:42:24.243Z,27.00
2018-09-23T02:44:59.694Z,26.30
2018-09-23T02:47:35.476Z,29.42
2018-09-23T02:50:10.784Z,28.10
2018-09-23T02:52:46.233Z,26.50
2018-09-23T02:55:21.701Z,25.55
2018-09-23T02:57:57.241Z,23.57
2018-09-23T03:00:32.453Z,23.67
2018-09-23T03:03:07.837Z,24.87
2018-09-23T03:05:43.743Z,22.48
2018-09-23T03:08:19.294Z,21.75
2018-09-23T03:10:54.801Z,22.65
2018-09-23T03:13:30.326Z,21.57
2018-09-23T03:16:05.735Z,22.87
2018-09-23T03:18:41.294Z,22.62
2018-09-23T03:21:16.720Z,21.80
2018-09-23T03:23:52.207Z,24.25
2018-09-23T03:26:27.591Z,22.37
2018-09-23T03:29:03.145Z,24.45
2018-09-23T03:31:38.588Z,22.93
2018-09-23T03:34:14.216Z,23.12
2018-09-23T03:36:49.765Z,23.65
2018-09-23T03:39:25.137Z,22.87
2018-09-23T03:42:00.517Z,23.02
2018-09-23T03:44:36.029Z,23.22
2018-09-23T03:47:11.569Z,22.45
2018-09-23T03:49:46.897Z,23.20
2018-09-23T03:52:22.237Z,23.18
2018-09-23T03:54:57.576Z,21.27
2018-09-23T03:57:33.136Z,23.32
2018-09-23T04:00:08.660Z,22.75
2018-09-23T04:02:43.977Z,23.60
2018-09-23T04:05:19.413Z,22.58
2018-09-23T04:07:54.874Z,23.85
2018-09-23T04:10:30.281Z,24.07
2018-09-23T04:13:05.665Z,23.83
2018-09-23T04:15:41.308Z,23.45
2018-09-23T04:18:16.632Z,23.92
2018-09-23T04:20:51.962Z,22.95
2018-09-23T04:23:27.293Z,23.73
2018-09-23T04:26:02.741Z,23.87
2018-09-23T04:28:38.249Z,23.67
2018-09-23T04:31:13.684Z,23.98
2018-09-23T04:33:49.188Z,23.75
2018-09-23T04:36:24.786Z,24.57
2018-09-23T04:39:00.264Z,25.85
2018-09-23T04:41:35.768Z,24.20
2018-09-23T04:44:11.405Z,24.10
2018-09-23T04:46:47.049Z,23.77
2018-09-23T04:49:22.568Z,22.75
2018-09-23T04:51:57.945Z,24.10
2018-09-23T04:54:33.383Z,25.27
2018-09-23T04:57:08.856Z,25.90
2018-09-23T04:59:44.185Z,25.50
2018-09-23T05:02:19.592Z,24.95
2018-09-23T05:04:55.085Z,24.32
2018-09-23T05:07:30.596Z,25.92
2018-09-23T05:10:06.085Z,25.83
2018-09-23T05:12:41.741Z,27.50
2018-09-23T05:15:17.099Z,26.00
2018-09-23T05:17:52.652Z,26.00
2018-09-23T05:20:28.143Z,25.30
2018-09-23T05:23:03.737Z,25.75
2018-09-23T05:25:39.253Z,25.72
2018-09-23T05:28:14.731Z,27.02
2018-09-23T05:30:50.150Z,23.18
2018-09-23T05:33:25.597Z,24.67
2018-09-23T05:36:00.821Z,23.75
2018-09-23T05:38:36.411Z,26.80
2018-09-23T05:41:11.749Z,25.72
2018-09-23T05:43:47.277Z,25.48
2018-09-23T05:46:22.777Z,27.48
2018-09-23T05:48:58.153Z,25.12
2018-09-23T05:51:33.394Z,25.48
2018-09-23T05:54:09.009Z,25.23
2018-09-23T05:56:44.532Z,26.55
2018-09-23T05:59:20.117Z,25.02
2018-09-23T06:01:55.651Z,25.55
2018-09-23T06:04:31.193Z,26.73
2018-09-23T06:07:06.552Z,25.75
2018-09-23T06:09:41.976Z,24.98
2018-09-23T06:12:17.340Z,24.35
2018-09-23T06:14:52.722Z,25.25
2018-09-23T06:17:28.093Z,26.02
2018-09-23T06:20:03.688Z,25.05
2018-09-23T06:22:38.932Z,25.27
2018-09-23T06:25:14.409Z,26.77
2018-09-23T06:27:49.977Z,24.95
2018-09-23T06:30:25.520Z,23.32
2018-09-23T06:33:00.969Z,24.10
2018-09-23T06:35:36.552Z,24.47
2018-09-23T06:38:11.909Z,23.57
2018-09-23T06:40:47.501Z,23.73
2018-09-23T06:43:23.262Z,22.52
2018-09-23T06:45:58.833Z,23.10
2018-09-23T06:48:34.135Z,23.57
2018-09-23T06:58:53.953Z,21.90
2018-09-23T07:01:29.285Z,22.35
2018-09-23T07:04:04.800Z,22.77
2018-09-23T07:06:40.213Z,20.97
2018-09-23T07:09:15.721Z,21.20
2018-09-23T07:11:51.074Z,22.60
2018-09-23T07:14:26.546Z,22.25
2018-09-23T07:17:02.017Z,20.80
2018-09-23T07:19:37.496Z,21.73
2018-09-23T07:40:16.876Z,20.30
2018-09-23T07:42:52.514Z,20.30
2018-09-23T07:48:03.008Z,20.70
2018-09-23T07:50:38.633Z,20.15
2018-09-23T07:53:13.932Z,22.10
2018-09-23T08:03:33.722Z,20.30
2018-09-23T08:06:09.111Z,20.80
2018-09-23T08:08:44.657Z,19.60
2018-09-23T08:19:04.849Z,20.85
2018-09-23T08:21:40.141Z,17.95
2018-09-23T08:39:44.472Z,18.20
2018-09-23T09:21:03.112Z,17.37
2018-09-23T09:23:38.443Z,15.68
2018-09-23T09:26:14.074Z,15.88
2018-09-23T09:28:49.581Z,19.27
2018-09-23T09:31:25.006Z,15.70
2018-09-23T09:34:00.247Z,18.17
2018-09-23T09:36:35.687Z,17.37
2018-09-23T09:39:11.921Z,15.48
2018-09-23T09:41:47.697Z,15.55
2018-09-23T09:44:23.157Z,16.67
2018-09-23T09:46:58.574Z,17.07
2018-09-23T09:49:34.141Z,18.80
2018-09-23T09:52:09.517Z,17.30
2018-09-23T09:54:44.921Z,20.37
2018-09-23T09:57:20.610Z,17.98
2018-09-23T09:59:56.285Z,17.25
2018-09-23T10:02:31.848Z,17.20
2018-09-23T10:05:07.345Z,17.15
2018-09-23T10:07:42.636Z,18.02
2018-09-23T10:10:18.059Z,16.70
2018-09-23T10:12:53.770Z,15.95
2018-09-23T10:15:29.229Z,16.35
2018-09-23T10:18:04.815Z,15.45
2018-09-23T10:20:40.297Z,15.25
2018-09-23T10:23:15.941Z,15.68
2018-09-23T10:25:51.222Z,17.75
2018-09-23T10:28:26.821Z,14.28
2018-09-23T10:31:02.068Z,16.73
2018-09-23T10:33:37.618Z,15.40
2018-09-23T10:36:13.059Z,14.60
2018-09-23T10:38:48.665Z,16.05
2018-09-23T10:41:24.208Z,16.87
2018-09-23T10:43:59.813Z,15.63
2018-09-23T10:46:36.173Z,14.03
2018-09-23T10:49:11.779Z,14.50
2018-09-23T10:51:47.145Z,14.95
2018-09-23T10:54:22.756Z,14.40
2018-09-23T10:56:58.093Z,14.05
2018-09-23T10:59:33.603Z,14.75
2018-09-23T11:02:09.057Z,14.38
2018-09-23T11:04:44.640Z,12.33
2018-09-23T11:07:20.000Z,14.10
2018-09-23T11:09:55.524Z,13.95
2018-09-23T11:12:31.066Z,13.65
2018-09-23T11:15:06.554Z,14.10
2018-09-23T11:17:41.980Z,15.00
2018-09-23T11:20:24.756Z,15.03
2018-09-23T11:23:00.137Z,14.18
2018-09-23T11:25:35.636Z,14.75
2018-09-23T11:28:11.187Z,13.98
2018-09-23T11:30:46.800Z,13.62
2018-09-23T11:33:22.241Z,13.43
2018-09-23T11:35:57.759Z,14.20
2018-09-23T11:38:33.246Z,13.18
2018-09-23T11:41:08.821Z,12.65
2018-09-23T11:43:44.398Z,14.35
2018-09-23T11:46:19.991Z,15.90
2018-09-23T11:48:55.522Z,15.15
2018-09-23T11:51:31.183Z,14.00
2018-09-23T11:54:06.445Z,13.98
2018-09-23T11:56:42.090Z,13.98
2018-09-23T11:59:17.533Z,21.17
2018-09-23T12:01:54.584Z,13.10
2018-09-23T12:04:30.076Z,13.40
2018-09-23T12:07:05.491Z,14.33
2018-09-23T12:09:40.991Z,12.68
2018-09-23T12:12:16.437Z,13.25
2018-09-23T12:14:51.840Z,17.50
2018-09-23T12:17:27.315Z,12.05
2018-09-23T12:20:02.894Z,12.20
2018-09-23T12:22:38.373Z,11.60
2018-09-23T12:25:13.853Z,14.10
2018-09-23T12:27:49.299Z,14.25
2018-09-23T12:30:24.825Z,11.65
2018-09-23T12:33:00.132Z,11.90
2018-09-23T12:35:35.528Z,12.68
2018-09-23T12:38:10.973Z,12.78
2018-09-23T12:40:46.489Z,14.90
2018-09-23T12:53:41.486Z,11.40
2018-09-23T12:56:17.010Z,11.03
2018-09-23T12:58:52.454Z,10.05
2018-09-23T13:01:27.794Z,7.90
2018-09-23T13:04:03.202Z,5.55
2018-09-23T13:06:38.840Z,7.08
2018-09-23T13:09:14.334Z,7.95
2018-09-23T13:11:49.530Z,8.18
2018-09-23T13:14:24.980Z,6.42
2018-09-23T13:17:00.511Z,5.55
2018-09-23T13:19:36.231Z,5.35
2018-09-23T13:22:11.855Z,4.45
2018-09-23T13:24:47.357Z,4.78
2018-09-23T13:27:22.797Z,4.50
2018-09-23T13:29:58.306Z,5.12
2018-09-23T13:32:33.619Z,4.20
2018-09-23T13:35:09.053Z,5.33
2018-09-23T13:37:44.573Z,6.70
2018-09-23T13:40:20.013Z,7.92
2018-09-23T13:42:55.447Z,6.15
2018-09-23T13:45:31.261Z,6.90
2018-09-23T13:48:06.961Z,5.25
2018-09-23T13:50:42.576Z,5.30
2018-09-23T13:53:17.870Z,5.60
2018-09-23T13:55:53.408Z,5.37
2018-09-23T13:58:28.805Z,4.92
2018-09-23T14:01:04.281Z,5.78
2018-09-23T14:03:39.828Z,5.58
2018-09-23T14:06:15.272Z,5.37
2018-09-23T14:08:50.726Z,7.03
2018-09-23T14:11:26.395Z,6.92
2018-09-23T14:14:01.861Z,5.10
2018-09-23T14:16:37.386Z,5.97
2018-09-23T14:19:12.637Z,6.10
2018-09-23T14:21:48.130Z,4.80
2018-09-23T14:24:23.577Z,7.47
2018-09-23T14:26:59.147Z,7.22
2018-09-23T14:29:34.581Z,5.78
2018-09-23T14:32:16.901Z,7.65
2018-09-23T14:34:53.354Z,6.67
2018-09-23T14:37:29.273Z,5.83
2018-09-23T14:40:04.753Z,4.92
2018-09-23T14:42:40.557Z,6.60
2018-09-23T14:45:15.954Z,5.53
2018-09-23T14:47:51.520Z,5.20
2018-09-23T14:50:26.911Z,5.67
2018-09-23T14:53:02.578Z,7.10
2018-09-23T14:55:38.144Z,5.80
2018-09-23T14:58:13.714Z,6.22
2018-09-23T15:00:49.022Z,4.90
2018-09-23T15:03:24.632Z,4.20
2018-09-23T15:06:00.152Z,5.10
2018-09-23T15:08:35.692Z,5.00
2018-09-23T15:11:11.009Z,4.08
2018-09-23T15:13:46.749Z,5.58
2018-09-23T15:16:22.163Z,4.22
2018-09-23T15:18:57.989Z,6.60
2018-09-23T15:21:33.426Z,6.20
2018-09-23T15:24:09.141Z,6.70
2018-09-23T15:26:44.469Z,6.75
2018-09-23T15:29:19.985Z,5.00
2018-09-23T15:31:55.265Z,6.40
2018-09-23T15:34:30.787Z,7.25
2018-09-23T15:37:06.233Z,7.30
2018-09-23T15:39:41.759Z,9.05
2018-09-23T15:42:17.446Z,7.97
2018-09-23T15:44:53.052Z,8.50
2018-09-23T15:47:28.261Z,8.55
2018-09-23T15:50:03.971Z,6.60
2018-09-23T15:52:39.489Z,7.83
2018-09-23T15:55:14.936Z,8.00
2018-09-23T15:57:51.111Z,10.13
2018-09-23T16:00:26.601Z,14.70
2018-09-23T16:03:01.987Z,18.90
2018-09-23T16:05:37.657Z,10.53
2018-09-23T16:08:12.849Z,11.53
2018-09-23T16:10:48.424Z,16.07
2018-09-23T16:13:23.861Z,11.10
2018-09-23T16:15:59.537Z,8.83
2018-09-23T16:18:35.142Z,11.68
2018-09-23T16:21:10.525Z,9.13
2018-09-23T16:23:46.058Z,10.05
2018-09-23T16:26:21.839Z,8.98
2018-09-23T16:44:26.209Z,8.60
2018-09-23T16:47:01.669Z,8.20
2018-09-23T16:49:37.201Z,6.67
2018-09-23T16:52:12.810Z,8.38
2018-09-23T16:54:48.530Z,10.80
2018-09-23T16:57:23.983Z,7.00
2018-09-23T16:59:59.574Z,9.75
2018-09-23T17:02:35.317Z,7.78
2018-09-23T17:05:10.747Z,6.72
2018-09-23T17:07:46.214Z,7.28
2018-09-23T17:10:21.682Z,6.58
2018-09-23T17:12:57.229Z,6.80
2018-09-23T17:15:32.782Z,8.28
2018-09-23T17:18:08.583Z,7.92
2018-09-23T17:20:44.112Z,8.50
2018-09-23T17:23:19.479Z,6.90
2018-09-23T17:25:54.839Z,7.55
2018-09-23T17:28:30.463Z,6.03
2018-09-23T17:31:05.721Z,6.28
2018-09-23T17:33:41.297Z,7.10
2018-09-23T17:36:16.673Z,7.30
2018-09-23T17:38:52.351Z,7.50
2018-09-23T17:41:27.808Z,6.00
2018-09-23T17:44:03.339Z,7.87
2018-09-23T17:46:38.710Z,6.12
2018-09-23T17:49:14.150Z,8.88
2018-09-23T17:51:50.390Z,5.70
2018-09-23T17:54:25.870Z,7.10
2018-09-23T17:57:01.281Z,6.08
2018-09-23T17:59:36.766Z,8.15
2018-09-23T18:02:12.267Z,5.70
2018-09-23T18:04:47.709Z,4.55
2018-09-23T18:07:23.244Z,4.33
2018-09-23T18:09:58.806Z,4.08
2018-09-23T18:12:34.578Z,5.47
2018-09-23T18:15:10.155Z,8.05
2018-09-23T18:17:45.476Z,6.05
2018-09-23T18:20:21.042Z,4.95
2018-09-23T18:22:56.398Z,4.67
2018-09-23T18:25:32.083Z,4.75
2018-09-23T18:28:07.453Z,4.25
2018-09-23T18:30:43.089Z,3.90
2018-09-23T18:33:18.621Z,3.60
2018-09-23T18:35:54.383Z,6.67
2018-09-23T18:38:29.959Z,5.75
2018-09-23T18:41:05.624Z,4.12
2018-09-23T18:43:41.480Z,4.53
2018-09-23T18:46:16.985Z,4.62
2018-09-23T18:48:52.449Z,4.70
2018-09-23T18:51:27.965Z,3.62
2018-09-23T18:54:08.547Z,4.17
2018-09-23T18:56:44.213Z,3.67
2018-09-23T18:59:19.736Z,4.92
2018-09-23T19:01:55.454Z,3.20
2018-09-23T19:04:30.969Z,3.25
2018-09-23T19:07:06.616Z,3.90
2018-09-23T19:09:41.959Z,3.12
2018-09-23T19:12:17.569Z,5.85
2018-09-23T19:14:52.816Z,3.20
2018-09-23T19:17:28.579Z,3.85
2018-09-23T19:20:09.865Z,3.80
2018-09-23T19:23:20.316Z,5.17
2018-09-23T19:25:55.817Z,3.52
2018-09-23T19:28:31.411Z,4.35
2018-09-23T19:31:06.781Z,3.65
2018-09-23T19:33:42.368Z,4.50
2018-09-23T19:36:17.877Z,4.60
2018-09-23T19:38:53.497Z,4.75
2018-09-23T19:41:29.354Z,3.70
2018-09-23T19:44:05.209Z,2.70
2018-09-23T19:46:40.699Z,2.40
2018-09-23T19:49:16.309Z,3.72
2018-09-23T19:51:51.560Z,3.55
2018-09-23T19:54:27.084Z,3.55
2018-09-23T19:57:02.647Z,4.85
2018-09-23T19:59:38.213Z,2.75
2018-09-23T20:02:13.724Z,3.27
2018-09-23T20:04:49.432Z,4.30
2018-09-23T20:07:25.436Z,4.53
2018-09-23T20:10:01.502Z,2.30
2018-09-23T20:12:36.940Z,3.05
2018-09-23T20:15:17.305Z,3.30
2018-09-23T20:17:52.661Z,3.92
2018-09-23T20:20:28.397Z,3.90
2018-09-23T20:23:03.701Z,5.08
2018-09-23T20:25:39.180Z,7.75
2018-09-23T20:28:14.449Z,3.50
2018-09-23T20:30:50.149Z,2.10
2018-09-23T20:33:26.202Z,2.25
2018-09-23T20:36:02.129Z,3.72
2018-09-23T20:38:37.613Z,3.02
2018-09-23T20:41:13.095Z,2.90
2018-09-23T20:43:48.879Z,2.20
2018-09-23T20:46:24.545Z,3.27
2018-09-23T20:49:00.065Z,3.10
2018-09-23T20:51:35.682Z,2.80
2018-09-23T20:54:11.205Z,3.27
2018-09-23T20:56:46.622Z,2.50
2018-09-23T20:59:22.037Z,7.87
2018-09-23T21:01:57.844Z,2.15
2018-09-23T21:04:33.389Z,3.47
2018-09-23T21:07:09.026Z,2.90
2018-09-23T21:09:44.506Z,5.25
2018-09-23T21:12:20.159Z,1.90
2018-09-23T21:14:55.561Z,2.80
2018-09-23T21:17:31.080Z,3.00
2018-09-23T21:20:06.977Z,4.87
2018-09-23T21:22:42.474Z,2.20
2018-09-23T21:25:17.990Z,2.90
2018-09-23T21:27:53.568Z,2.02
2018-09-23T21:30:29.014Z,2.27
2018-09-23T21:33:04.758Z,2.65
2018-09-23T21:35:40.210Z,1.80
2018-09-23T21:38:15.794Z,4.35
2018-09-23T21:40:51.136Z,2.20
2018-09-23T21:43:27.137Z,3.60
2018-09-23T21:46:02.396Z,1.90
2018-09-23T21:48:37.860Z,2.30
2018-09-23T21:51:13.411Z,2.40
2018-09-23T21:53:49.141Z,2.00
2018-09-23T21:56:24.660Z,2.35
2018-09-23T21:59:00.065Z,3.00
2018-09-23T22:01:35.569Z,2.05
2018-09-23T22:04:11.944Z,2.40
2018-09-23T22:06:47.238Z,1.92
2018-09-23T22:09:23.844Z,2.20
2018-09-23T22:11:59.072Z,4.40
2018-09-23T22:14:34.841Z,2.98
2018-09-23T22:17:10.256Z,1.60
2018-09-23T22:19:46.353Z,3.80
2018-09-23T22:22:21.837Z,2.60
2018-09-23T22:24:57.578Z,4.55
2018-09-23T22:27:33.029Z,1.72
2018-09-23T22:30:08.669Z,1.55
2018-09-23T22:32:43.962Z,2.62
2018-09-23T22:35:19.693Z,1.82
2018-09-23T22:37:55.180Z,2.55
2018-09-23T22:40:30.824Z,2.27
2018-09-23T22:43:07.365Z,3.05
2018-09-23T22:45:43.036Z,1.80
2018-09-23T22:48:18.234Z,1.90
2018-09-23T22:50:53.919Z,2.12
2018-09-23T22:53:29.335Z,1.75
2018-09-23T22:56:04.933Z,2.52
2018-09-23T22:58:40.356Z,1.40
2018-09-23T23:01:15.926Z,2.55
2018-09-23T23:03:51.256Z,2.85
2018-09-23T23:06:26.812Z,1.82
2018-09-23T23:09:02.200Z,2.25
2018-09-23T23:11:37.811Z,1.55
2018-09-23T23:14:13.313Z,2.70
2018-09-23T23:16:49.035Z,2.10
2018-09-23T23:19:24.517Z,1.90
2018-09-23T23:22:00.197Z,2.12
2018-09-23T23:24:35.529Z,2.17
2018-09-23T23:27:10.999Z,1.72
2018-09-23T23:29:46.464Z,1.80
2018-09-23T23:32:22.088Z,2.00
2018-09-23T23:34:57.404Z,1.90
2018-09-23T23:37:32.877Z,2.22
2018-09-23T23:40:09.012Z,2.20
2018-09-23T23:42:44.771Z,1.90
2018-09-23T23:45:20.312Z,2.08
2018-09-23T23:47:55.798Z,1.95
2018-09-23T23:50:31.271Z,1.30
2018-09-23T23:53:06.764Z,1.77
2018-09-23T23:55:42.380Z,1.62
2018-09-23T23:58:18.200Z,1.72
